Northern Grand Banks: Past 24 Hour Conditions

 

East Point

04:00 PM ADT 16 April 2014
This table is a summary of hourly weather conditions for the past 24 hours.
Date / Time
(ADT)
Wind(knots) Conditions Visibility(km) Pressure(kPa) Air tempC) Relative humidity(%) Dew pointC) Wind Chill
16 April 2014
16:00 WNW 17 gust 25 N/A N/A 101.8 0 93 -1 -7
15:00 NW 19 gust 27 N/A N/A 101.5 0 96 -1 -7
14:00 NW 21 N/A N/A 101.3 0 98 0 *
13:00 NW 14 N/A N/A 101.1 1 99 1 *
12:00 NW 15 N/A N/A 100.9 2 98 2 *
11:00 SSW 17 gust 25 N/A N/A 100.5 7 97 7 *
10:00 SSW 20 gust 28 N/A N/A 100.5 8 97 8 *
9:00 S 20 gust 29 N/A N/A 100.6 8 98 8 *
8:00 S 14 gust 19 N/A N/A 100.6 7 99 7 *
7:00 S 17 N/A N/A 100.7 8 99 7 *
6:00 S 11 gust 17 N/A N/A 100.8 5 99 5 *
5:00 S 16 N/A N/A 100.8 5 99 5 *
4:00 S 13 gust 19 N/A N/A 100.9 5 99 5 *
3:00 S 9 N/A N/A 101.0 4 99 4 *
2:00 S 15 gust 20 N/A N/A 101.0 6 98 6 *
1:00 S 16 gust 22 N/A N/A 101.1 7 98 6 *
0:00 SSE 20 gust 27 N/A N/A 101.2 7 98 6 *
15 April 2014
23:00 SSW 16 gust 21 N/A N/A 101.2 6 98 6 *
22:00 SSW 15 N/A N/A 101.3 5 98 5 *
21:00 SSW 16 gust 22 N/A N/A 101.3 7 97 6 *
20:00 S 11 gust 16 N/A N/A 101.3 6 88 4 *
19:00 SSW 14 gust 20 N/A N/A 101.3 7 87 5 *
18:00 SSW 15 gust 22 N/A N/A 101.2 9 83 6 *
17:00 SSW 13 gust 19 N/A N/A 101.3 10 75 6 *
16:00 SSW 19 gust 24 N/A N/A 101.3 10 76 6 *
 
Map of Atlantic - Newfoundland marine weather areas Southwestern Grand Banks - 44138 Banquereau - 44139 Tail of the Bank - 44140 Nickerson Bank - 44251 Northeast Burgeo Bank - 44255 Blanc-Sablon Airport Cap Whittle Chevery Natashquan Airport Heath Point Miscou Island Grand Étang Ingonish Beach North Mountain St.Paul Island J.A. Douglas McCurdy Sydney Airport Charlottetown Airport East Point North Cape Argentia Bonavista Burgeo Cape Race Corner Brook Daniel's Harbour Englee Ferolle Point La Scie Port aux Basques Rocky Harbour Sagona Island St. Anthony Airport St. John's Int'l Airport St. Lawrence Stephenville Airport Twillingate Winterland Wreckhouse Cartwright Airport Mary's Harbour Grates Cove Pool's Island Marticot Island Long Pond Îles de la Madeleine Airport
Legend: buoyBuoy land stationLand Station